createdAt,value
2023-04-15T00:01:49.268Z,9.70
2023-04-15T00:04:16.534Z,9.70
2023-04-15T00:06:43.787Z,9.60
2023-04-15T00:09:11.382Z,9.60
2023-04-15T00:11:38.352Z,9.60
2023-04-15T00:14:06.281Z,9.50
2023-04-15T00:16:33.292Z,9.50
2023-04-15T00:19:00.575Z,9.50
2023-04-15T00:21:29.107Z,9.50
2023-04-15T00:23:56.399Z,9.40
2023-04-15T00:26:23.349Z,9.40
2023-04-15T00:28:50.528Z,9.30
2023-04-15T00:31:17.497Z,9.30
2023-04-15T00:33:44.760Z,9.20
2023-04-15T00:36:11.736Z,9.20
2023-04-15T00:38:39.156Z,9.20
2023-04-15T00:41:06.170Z,9.10
2023-04-15T00:43:33.122Z,9.10
2023-04-15T00:46:02.514Z,9.10
2023-04-15T00:48:29.967Z,9.10
2023-04-15T00:50:57.709Z,9.10
2023-04-15T00:53:24.923Z,9.00
2023-04-15T00:55:51.909Z,9.00
2023-04-15T00:58:19.182Z,9.00
2023-04-15T01:00:46.808Z,8.90
2023-04-15T01:03:15.567Z,8.90
2023-04-15T01:05:42.876Z,8.80
2023-04-15T01:08:09.893Z,8.80
2023-04-15T01:10:37.941Z,8.80
2023-04-15T01:13:05.059Z,8.70
2023-04-15T01:15:32.379Z,8.70
2023-04-15T01:17:59.896Z,8.60
2023-04-15T01:20:27.574Z,8.60
2023-04-15T01:22:56.096Z,8.60
2023-04-15T01:25:33.730Z,8.60
2023-04-15T01:28:01.214Z,8.50
2023-04-15T01:30:28.401Z,8.50
2023-04-15T01:32:55.317Z,8.50
2023-04-15T01:35:22.664Z,8.40
2023-04-15T01:37:52.579Z,8.40
2023-04-15T01:40:19.624Z,8.40
2023-04-15T01:42:47.376Z,8.40
2023-04-15T01:45:15.700Z,8.30
2023-04-15T01:47:42.733Z,8.20
2023-04-15T01:50:10.766Z,8.20
2023-04-15T01:52:38.261Z,8.20
2023-04-15T01:55:06.327Z,8.20
2023-04-15T01:57:33.392Z,8.20
2023-04-15T02:00:01.066Z,8.10
2023-04-15T02:02:28.249Z,8.10
2023-04-15T02:04:56.774Z,8.10
2023-04-15T02:07:24.284Z,8.00
2023-04-15T02:09:51.261Z,8.00
2023-04-15T02:12:19.020Z,8.00
2023-04-15T02:14:46.269Z,8.00
2023-04-15T02:17:13.186Z,7.90
2023-04-15T02:19:43.493Z,7.90
2023-04-15T02:22:13.456Z,7.90
2023-04-15T02:24:40.406Z,7.90
2023-04-15T02:27:07.321Z,7.90
2023-04-15T02:29:34.250Z,7.90
2023-04-15T02:32:01.745Z,7.90
2023-04-15T02:34:28.769Z,7.90
2023-04-15T02:36:57.886Z,7.90
2023-04-15T02:39:25.248Z,7.90
2023-04-15T02:41:52.534Z,7.90
2023-04-15T02:44:20.613Z,7.90
2023-04-15T02:46:52.489Z,7.90
2023-04-15T02:49:19.517Z,7.90
2023-04-15T02:51:49.536Z,7.90
2023-04-15T02:54:17.960Z,7.90
2023-04-15T02:56:44.960Z,7.90
2023-04-15T02:59:12.967Z,7.80
2023-04-15T03:01:40.064Z,7.80
2023-04-15T03:04:09.124Z,7.80
2023-04-15T03:06:36.690Z,7.80
2023-04-15T03:09:04.109Z,7.70
2023-04-15T03:11:36.879Z,7.70
2023-04-15T03:14:03.977Z,7.70
2023-04-15T03:16:35.054Z,7.70
2023-04-15T03:19:02.146Z,7.70
2023-04-15T03:21:29.669Z,7.70
2023-04-15T03:23:57.721Z,7.70
2023-04-15T03:26:30.504Z,7.60
2023-04-15T03:29:03.991Z,7.60
2023-04-15T03:31:31.133Z,7.60
2023-04-15T03:33:58.148Z,7.50
2023-04-15T03:36:25.916Z,7.50
2023-04-15T03:38:53.034Z,7.50
2023-04-15T03:41:19.903Z,7.50
2023-04-15T03:43:46.816Z,7.50
2023-04-15T03:46:13.775Z,7.50
2023-04-15T03:48:40.849Z,7.50
2023-04-15T03:51:07.765Z,7.40
2023-04-15T03:53:34.691Z,7.40
2023-04-15T03:56:01.816Z,7.50
2023-04-15T03:58:29.561Z,7.50
2023-04-15T04:00:56.554Z,7.50
2023-04-15T04:03:23.909Z,7.40
2023-04-15T04:05:51.472Z,7.40
2023-04-15T04:08:19.583Z,7.40
2023-04-15T04:10:46.510Z,7.40
2023-04-15T04:13:13.412Z,7.40
2023-04-15T04:15:40.807Z,7.40
2023-04-15T04:18:07.850Z,7.40
2023-04-15T04:20:34.849Z,7.40
2023-04-15T04:23:01.795Z,7.40
2023-04-15T04:25:28.693Z,7.30
2023-04-15T04:27:55.608Z,7.40
2023-04-15T04:30:23.057Z,7.30
2023-04-15T04:32:51.612Z,7.40
2023-04-15T04:35:18.563Z,7.40
2023-04-15T04:37:45.471Z,7.40
2023-04-15T04:40:13.184Z,7.30
2023-04-15T04:42:40.351Z,7.30
2023-04-15T04:45:08.881Z,7.30
2023-04-15T04:47:35.888Z,7.30
2023-04-15T04:50:03.534Z,7.30
2023-04-15T04:52:30.665Z,7.30
2023-04-15T04:54:57.545Z,7.30
2023-04-15T04:57:24.428Z,7.30
2023-04-15T04:59:51.402Z,7.40
2023-04-15T05:02:18.396Z,7.40
2023-04-15T05:04:45.475Z,7.40
2023-04-15T05:07:12.376Z,7.40
2023-04-15T05:09:39.285Z,7.40
2023-04-15T05:12:06.482Z,7.40
2023-04-15T05:14:33.456Z,7.40
2023-04-15T05:17:00.380Z,7.40
2023-04-15T05:19:27.293Z,7.50
2023-04-15T05:21:54.265Z,7.60
2023-04-15T05:24:21.503Z,7.80
2023-04-15T05:26:48.489Z,8.40
2023-04-15T05:29:15.514Z,9.10
2023-04-15T05:31:43.199Z,9.60
2023-04-15T05:34:11.736Z,10.50
2023-04-15T05:36:38.785Z,11.40
2023-04-15T05:39:05.671Z,12.30
2023-04-15T05:41:32.745Z,13.10
2023-04-15T05:43:59.722Z,13.90
2023-04-15T05:46:27.571Z,14.50
2023-04-15T05:48:56.353Z,15.20
2023-04-15T05:51:23.625Z,15.80
2023-04-15T05:53:50.608Z,16.30
2023-04-15T05:56:17.596Z,16.80
2023-04-15T05:58:44.429Z,17.10
2023-04-15T06:01:11.777Z,17.60
2023-04-15T06:03:39.124Z,18.00
2023-04-15T06:06:06.206Z,18.50
2023-04-15T06:08:33.054Z,19.00
2023-04-15T06:11:00.053Z,19.40
2023-04-15T06:13:27.187Z,19.70
2023-04-15T06:15:54.214Z,20.00
2023-04-15T06:18:21.279Z,20.10
2023-04-15T06:20:48.126Z,20.30
2023-04-15T06:23:14.975Z,20.40
2023-04-15T06:25:41.747Z,20.80
2023-04-15T06:28:08.775Z,21.20
2023-04-15T06:30:36.223Z,21.60
2023-04-15T06:33:05.590Z,22.00
2023-04-15T06:35:32.446Z,22.40
2023-04-15T06:37:59.259Z,22.90
2023-04-15T06:40:26.084Z,23.40
2023-04-15T06:42:52.934Z,23.70
2023-04-15T06:45:20.174Z,24.00
2023-04-15T06:47:47.101Z,24.30
2023-04-15T06:50:14.547Z,24.80
2023-04-15T06:52:41.560Z,25.20
2023-04-15T06:55:08.793Z,25.50
2023-04-15T06:57:35.786Z,25.60
2023-04-15T07:00:03.768Z,25.80
2023-04-15T07:02:30.602Z,26.00
2023-04-15T07:04:57.458Z,26.10
2023-04-15T07:07:24.328Z,26.40
2023-04-15T07:09:53.661Z,26.50
2023-04-15T07:12:21.542Z,26.60
2023-04-15T07:14:49.460Z,26.40
2023-04-15T07:17:16.661Z,25.90
2023-04-15T07:19:43.515Z,25.60
2023-04-15T07:22:10.368Z,25.60
2023-04-15T07:24:37.210Z,25.90
2023-04-15T07:27:04.234Z,26.20
2023-04-15T07:29:31.531Z,26.40
2023-04-15T07:31:58.400Z,26.70
2023-04-15T07:34:25.819Z,27.00
2023-04-15T07:36:52.753Z,27.20
2023-04-15T07:39:19.600Z,27.40
2023-04-15T07:41:46.644Z,27.50
2023-04-15T07:44:13.409Z,27.90
2023-04-15T07:46:40.527Z,28.10
2023-04-15T07:49:07.704Z,28.30
2023-04-15T07:51:34.554Z,28.60
2023-04-15T07:54:01.426Z,28.70
2023-04-15T07:56:28.233Z,28.60
2023-04-15T07:58:55.032Z,28.70
2023-04-15T08:01:21.889Z,29.00
2023-04-15T08:03:48.863Z,28.70
2023-04-15T08:06:15.885Z,28.60
2023-04-15T08:08:43.191Z,28.30
2023-04-15T08:11:10.075Z,27.90
2023-04-15T08:13:36.954Z,28.10
2023-04-15T08:16:21.074Z,28.50
2023-04-15T08:18:48.742Z,28.70
2023-04-15T08:21:16.251Z,28.60
2023-04-15T08:23:44.201Z,28.40
2023-04-15T08:26:11.114Z,28.50
2023-04-15T08:28:38.912Z,28.30
2023-04-15T08:31:06.012Z,28.10
2023-04-15T08:33:33.006Z,28.10
2023-04-15T08:35:59.929Z,27.90
2023-04-15T08:38:26.893Z,28.00
2023-04-15T08:40:53.787Z,28.10
2023-04-15T08:43:22.963Z,28.60
2023-04-15T08:45:51.832Z,29.00
2023-04-15T08:48:19.268Z,29.70
2023-04-15T08:50:47.143Z,29.90
2023-04-15T08:53:15.793Z,29.80
2023-04-15T08:55:44.932Z,29.60
2023-04-15T08:58:12.632Z,29.60
2023-04-15T09:00:40.479Z,30.00
2023-04-15T09:03:08.097Z,30.00
2023-04-15T09:05:38.574Z,30.10
2023-04-15T09:08:05.981Z,30.30
2023-04-15T09:10:34.573Z,30.30
2023-04-15T09:13:02.215Z,30.10
2023-04-15T09:15:30.363Z,29.90
2023-04-15T09:17:57.335Z,30.20
2023-04-15T09:20:24.640Z,30.40
2023-04-15T09:22:52.043Z,30.80
2023-04-15T09:25:21.621Z,31.00
2023-04-15T09:27:52.058Z,30.60
2023-04-15T09:30:18.931Z,30.60
2023-04-15T09:32:53.026Z,30.50
2023-04-15T09:35:20.926Z,30.10
2023-04-15T09:37:48.324Z,30.00
2023-04-15T09:40:15.259Z,29.80
2023-04-15T09:42:57.577Z,29.30
2023-04-15T09:45:25.671Z,29.00
2023-04-15T09:47:54.084Z,29.30
2023-04-15T09:50:21.139Z,29.50
2023-04-15T09:52:48.331Z,29.90
2023-04-15T09:55:16.038Z,30.00
2023-04-15T09:57:44.388Z,29.90
2023-04-15T10:00:11.534Z,30.20
2023-04-15T10:02:40.725Z,30.20
2023-04-15T10:05:08.609Z,30.40
2023-04-15T10:07:35.955Z,30.20
2023-04-15T10:10:03.801Z,29.90
2023-04-15T10:12:31.335Z,30.20
2023-04-15T10:15:05.058Z,30.40
2023-04-15T10:17:37.117Z,30.20
2023-04-15T10:20:05.219Z,30.10
2023-04-15T10:22:33.099Z,30.60
2023-04-15T10:25:02.607Z,30.80
2023-04-15T10:27:29.923Z,31.30
2023-04-15T10:29:57.213Z,31.30
2023-04-15T10:32:25.606Z,30.90
2023-04-15T10:34:54.466Z,31.10
2023-04-15T10:37:22.682Z,31.60
2023-04-15T10:39:49.675Z,32.10
2023-04-15T10:42:17.952Z,32.20
2023-04-15T10:44:44.935Z,31.80
2023-04-15T10:47:13.353Z,31.60
2023-04-15T10:49:45.358Z,31.70
2023-04-15T10:52:12.682Z,31.90
2023-04-15T10:54:39.703Z,31.20
2023-04-15T10:57:09.487Z,30.60
2023-04-15T10:59:37.004Z,30.80
2023-04-15T11:02:05.972Z,31.10
2023-04-15T11:04:51.678Z,31.40
2023-04-15T11:07:33.984Z,31.70
2023-04-15T11:10:01.900Z,31.60
2023-04-15T11:12:36.369Z,31.70
2023-04-15T11:15:22.284Z,32.00
2023-04-15T11:17:49.313Z,32.10
2023-04-15T11:20:16.239Z,32.10
2023-04-15T11:22:52.619Z,32.30
2023-04-15T11:25:37.832Z,31.10
2023-04-15T11:28:06.177Z,30.80
2023-04-15T11:30:37.633Z,31.00
2023-04-15T11:33:09.257Z,29.60
2023-04-15T11:35:36.274Z,27.70
2023-04-15T11:38:08.738Z,26.10
2023-04-15T11:40:35.874Z,26.30
2023-04-15T11:43:08.560Z,27.00
2023-04-15T11:45:36.574Z,27.30
2023-04-15T11:48:07.784Z,27.90
2023-04-15T11:50:35.370Z,28.30
2023-04-15T11:53:04.007Z,28.60
2023-04-15T11:55:31.940Z,27.90
2023-04-15T11:58:11.057Z,27.90
2023-04-15T12:00:39.729Z,27.60
2023-04-15T12:03:20.254Z,26.80
2023-04-15T12:06:08.802Z,25.60
2023-04-15T12:08:54.164Z,24.40
2023-04-15T12:11:21.962Z,24.30
2023-04-15T12:13:49.742Z,23.70
2023-04-15T12:16:17.153Z,22.90
2023-04-15T12:18:45.475Z,22.30
2023-04-15T12:21:12.327Z,21.80
2023-04-15T12:23:40.288Z,21.30
2023-04-15T12:26:07.549Z,21.00
2023-04-15T12:28:35.506Z,20.70
2023-04-15T12:31:07.263Z,20.60
2023-04-15T12:33:34.521Z,20.40
2023-04-15T12:36:01.514Z,20.00
2023-04-15T12:38:28.648Z,19.80
2023-04-15T12:40:55.683Z,19.50
2023-04-15T12:43:22.507Z,19.40
2023-04-15T12:45:49.444Z,19.30
2023-04-15T12:48:16.269Z,19.30
2023-04-15T12:50:43.301Z,19.80
2023-04-15T12:53:10.078Z,20.60
2023-04-15T12:55:36.911Z,20.80
2023-04-15T12:58:03.809Z,20.80
2023-04-15T13:00:30.653Z,20.60
2023-04-15T13:02:57.697Z,20.60
2023-04-15T13:05:24.532Z,20.50
2023-04-15T13:07:51.482Z,20.50
2023-04-15T13:10:18.284Z,20.60
2023-04-15T13:12:46.967Z,20.80
2023-04-15T13:15:13.802Z,20.40
2023-04-15T13:17:40.684Z,20.00
2023-04-15T13:20:08.883Z,19.80
2023-04-15T13:22:35.810Z,19.70
2023-04-15T13:25:02.617Z,19.70
2023-04-15T13:27:29.468Z,19.60
2023-04-15T13:29:56.311Z,19.70
2023-04-15T13:32:23.179Z,19.80
2023-04-15T13:34:50.199Z,19.90
2023-04-15T13:37:17.129Z,20.20
2023-04-15T13:39:44.083Z,20.40
2023-04-15T13:42:10.875Z,20.60
2023-04-15T13:44:37.777Z,21.60
2023-04-15T13:47:04.839Z,22.10
2023-04-15T13:49:31.953Z,22.10
2023-04-15T13:51:59.049Z,21.90
2023-04-15T13:54:26.057Z,21.40
2023-04-15T13:57:05.348Z,20.80
2023-04-15T13:59:34.280Z,20.30
2023-04-15T14:02:01.483Z,19.90
2023-04-15T14:04:28.600Z,19.80
2023-04-15T14:06:56.148Z,19.70
2023-04-15T14:09:26.274Z,19.70
2023-04-15T14:11:53.425Z,19.70
2023-04-15T14:14:20.327Z,19.70
2023-04-15T14:16:47.940Z,19.90
2023-04-15T14:19:14.941Z,20.00
2023-04-15T14:21:42.064Z,20.10
2023-04-15T14:24:09.152Z,20.20
2023-04-15T14:26:36.112Z,20.30
2023-04-15T14:29:03.206Z,20.20
2023-04-15T14:31:30.358Z,19.90
2023-04-15T14:33:57.233Z,19.60
2023-04-15T14:36:24.147Z,19.50
2023-04-15T14:38:51.125Z,19.40
2023-04-15T14:41:18.014Z,19.20
2023-04-15T14:43:44.940Z,19.00
2023-04-15T14:46:11.885Z,18.80
2023-04-15T14:48:39.691Z,18.60
2023-04-15T14:51:06.935Z,18.60
2023-04-15T14:53:34.038Z,18.40
2023-04-15T14:56:00.952Z,18.30
2023-04-15T14:58:27.792Z,18.20
2023-04-15T15:00:54.728Z,18.10
2023-04-15T15:03:21.727Z,18.00
2023-04-15T15:05:48.792Z,18.10
2023-04-15T15:08:15.765Z,18.10
2023-04-15T15:10:49.091Z,18.10
2023-04-15T15:13:16.860Z,18.00
2023-04-15T15:15:44.075Z,18.00
2023-04-15T15:18:11.226Z,17.90
2023-04-15T15:20:38.115Z,18.00
2023-04-15T15:23:04.968Z,18.00
2023-04-15T15:25:31.938Z,18.00
2023-04-15T15:27:58.969Z,18.00
2023-04-15T15:30:26.102Z,17.90
2023-04-15T15:32:53.331Z,17.70
2023-04-15T15:35:20.581Z,17.70
2023-04-15T15:37:47.453Z,17.80
2023-04-15T15:40:14.590Z,17.80
2023-04-15T15:42:42.682Z,17.90
2023-04-15T15:45:09.873Z,17.90
2023-04-15T15:47:36.955Z,17.80
2023-04-15T15:50:06.020Z,17.90
2023-04-15T15:52:33.238Z,17.80
2023-04-15T15:55:01.910Z,17.80
2023-04-15T15:57:28.845Z,17.80
2023-04-15T16:00:10.439Z,17.90
2023-04-15T16:03:05.331Z,17.90
2023-04-15T16:05:26.632Z,17.90
2023-04-15T16:07:53.564Z,17.80
2023-04-15T16:10:21.287Z,17.80
2023-04-15T16:12:48.364Z,17.70
2023-04-15T16:15:15.316Z,17.80
2023-04-15T16:17:42.248Z,17.70
2023-04-15T16:20:09.368Z,17.70
2023-04-15T16:22:36.410Z,17.60
2023-04-15T16:25:03.634Z,17.60
2023-04-15T16:27:31.412Z,17.50
2023-04-15T16:29:58.346Z,17.50
2023-04-15T16:32:25.436Z,17.40
2023-04-15T16:34:52.785Z,17.30
2023-04-15T16:37:20.867Z,17.20
2023-04-15T16:39:48.094Z,17.20
2023-04-15T16:42:14.989Z,17.10
2023-04-15T16:44:41.779Z,17.00
2023-04-15T16:47:11.209Z,16.90
2023-04-15T16:49:41.057Z,16.80
2023-04-15T16:52:07.881Z,16.70
2023-04-15T16:54:37.761Z,16.70
2023-04-15T16:57:04.668Z,16.70
2023-04-15T16:59:31.599Z,16.70
2023-04-15T17:01:58.565Z,16.60
2023-04-15T17:04:25.888Z,16.60
2023-04-15T17:06:53.114Z,16.50
2023-04-15T17:09:20.098Z,16.50
2023-04-15T17:11:48.147Z,16.40
2023-04-15T17:14:15.104Z,16.40
2023-04-15T17:16:43.194Z,16.40
2023-04-15T17:19:10.090Z,16.30
2023-04-15T17:21:37.131Z,16.30
2023-04-15T17:24:04.313Z,16.20
2023-04-15T17:26:31.933Z,16.10
2023-04-15T17:28:58.829Z,16.00
2023-04-15T17:31:25.743Z,16.00
2023-04-15T17:34:02.213Z,15.90
2023-04-15T17:36:37.085Z,15.80
2023-04-15T17:39:04.658Z,15.80
2023-04-15T17:41:31.681Z,15.70
2023-04-15T17:43:58.483Z,15.60
2023-04-15T17:46:25.468Z,15.50
2023-04-15T17:48:52.463Z,15.40
2023-04-15T17:51:19.362Z,15.30
2023-04-15T17:53:46.171Z,15.30
2023-04-15T17:56:13.099Z,15.20
2023-04-15T17:58:39.962Z,15.10
2023-04-15T18:01:06.882Z,15.00
2023-04-15T18:03:33.829Z,15.00
2023-04-15T18:06:01.377Z,14.90
2023-04-15T18:08:29.240Z,14.80
2023-04-15T18:10:56.474Z,14.70
2023-04-15T18:13:23.595Z,14.60
2023-04-15T18:15:54.396Z,14.60
2023-04-15T18:18:21.733Z,14.50
2023-04-15T18:20:48.740Z,14.40
2023-04-15T18:23:15.970Z,14.40
2023-04-15T18:25:43.949Z,14.30
2023-04-15T18:28:11.042Z,14.30
2023-04-15T18:30:38.516Z,14.30
2023-04-15T18:33:06.358Z,14.30
2023-04-15T18:35:35.210Z,14.30
2023-04-15T18:38:02.562Z,14.20
2023-04-15T18:40:29.943Z,14.20
2023-04-15T18:42:56.906Z,14.20
2023-04-15T18:45:24.196Z,14.10
2023-04-15T18:47:51.622Z,14.00
2023-04-15T18:50:18.717Z,13.90
2023-04-15T18:52:45.760Z,13.90
2023-04-15T18:55:12.955Z,13.80
2023-04-15T18:57:42.701Z,13.80
2023-04-15T19:00:13.430Z,13.70
2023-04-15T19:02:40.740Z,13.70
2023-04-15T19:05:08.468Z,13.60
2023-04-15T19:07:36.413Z,13.60
2023-04-15T19:10:06.322Z,13.50
2023-04-15T19:12:34.321Z,13.50
2023-04-15T19:15:01.495Z,13.40
2023-04-15T19:17:28.541Z,13.40
2023-04-15T19:19:55.728Z,13.30
2023-04-15T19:22:23.201Z,13.30
2023-04-15T19:24:51.916Z,13.20
2023-04-15T19:27:18.834Z,13.20
2023-04-15T19:29:46.317Z,13.20
2023-04-15T19:32:14.354Z,13.10
2023-04-15T19:34:42.070Z,13.10
2023-04-15T19:37:09.064Z,13.00
2023-04-15T19:39:36.118Z,13.00
2023-04-15T19:42:03.509Z,12.90
2023-04-15T19:44:30.513Z,12.90
2023-04-15T19:46:58.405Z,12.80
2023-04-15T19:49:26.594Z,12.80
2023-04-15T19:51:53.662Z,12.80
2023-04-15T19:54:21.134Z,12.70
2023-04-15T19:56:48.169Z,12.70
2023-04-15T19:59:15.251Z,12.70
2023-04-15T20:01:42.316Z,12.70
2023-04-15T20:04:09.587Z,12.70
2023-04-15T20:06:36.928Z,12.60
2023-04-15T20:09:04.398Z,12.60
2023-04-15T20:12:46.958Z,12.60
2023-04-15T20:14:19.362Z,12.60
2023-04-15T20:16:46.570Z,12.50
2023-04-15T20:19:13.939Z,12.50
2023-04-15T20:21:41.276Z,12.40
2023-04-15T20:24:08.767Z,12.30
2023-04-15T20:26:36.323Z,12.30
2023-04-15T20:29:03.529Z,12.20
2023-04-15T20:31:30.819Z,12.10
2023-04-15T20:33:57.922Z,12.00
2023-04-15T20:36:24.965Z,12.00
2023-04-15T20:38:52.043Z,11.90
2023-04-15T20:41:19.080Z,11.90
2023-04-15T20:43:46.024Z,11.80
2023-04-15T20:46:20.613Z,11.80
2023-04-15T20:48:48.490Z,11.70
2023-04-15T20:51:15.535Z,11.60
2023-04-15T20:53:42.716Z,11.60
2023-04-15T20:56:10.073Z,11.50
2023-04-15T20:58:38.646Z,11.50
2023-04-15T21:01:05.865Z,11.40
2023-04-15T21:03:33.045Z,11.40
2023-04-15T21:06:00.118Z,11.30
2023-04-15T21:08:29.764Z,11.20
2023-04-15T21:10:57.446Z,11.20
2023-04-15T21:13:24.503Z,11.10
2023-04-15T21:15:54.427Z,11.00
2023-04-15T21:18:23.133Z,11.00
2023-04-15T21:21:00.619Z,10.90
2023-04-15T21:23:31.531Z,10.90
2023-04-15T21:25:59.046Z,10.80
2023-04-15T21:28:28.124Z,10.80
2023-04-15T21:30:56.111Z,10.90
2023-04-15T21:33:23.165Z,10.90
2023-04-15T21:35:50.062Z,10.80
2023-04-15T21:38:17.312Z,10.80
2023-04-15T21:40:44.269Z,10.80
2023-04-15T21:43:11.215Z,10.70
2023-04-15T21:45:43.543Z,10.70
2023-04-15T21:48:31.441Z,10.60
2023-04-15T21:50:59.594Z,10.60
2023-04-15T21:53:26.836Z,10.60
2023-04-15T21:55:54.252Z,10.50
2023-04-15T21:58:21.303Z,10.50
2023-04-15T22:00:48.336Z,10.60
2023-04-15T22:03:16.463Z,10.50
2023-04-15T22:05:46.611Z,10.50
2023-04-15T22:08:13.622Z,10.50
2023-04-15T22:10:40.761Z,10.40
2023-04-15T22:13:11.028Z,10.40
2023-04-15T22:15:38.390Z,10.40
2023-04-15T22:18:06.040Z,10.40
2023-04-15T22:20:33.023Z,10.30
2023-04-15T22:23:00.220Z,10.30
2023-04-15T22:25:27.159Z,10.20
2023-04-15T22:27:54.064Z,10.20
2023-04-15T22:30:21.082Z,10.20
2023-04-15T22:32:48.087Z,10.20
2023-04-15T22:35:15.109Z,10.10
2023-04-15T22:37:42.075Z,10.10
2023-04-15T22:40:09.688Z,10.10
2023-04-15T22:42:36.694Z,10.00
2023-04-15T22:45:03.808Z,10.00
2023-04-15T22:47:30.820Z,9.90
2023-04-15T22:49:57.720Z,9.90
2023-04-15T22:52:30.695Z,9.90
2023-04-15T22:54:59.037Z,9.90
2023-04-15T22:57:27.869Z,9.90
2023-04-15T22:59:55.048Z,9.80
2023-04-15T23:02:22.231Z,9.80
2023-04-15T23:04:49.446Z,9.80
2023-04-15T23:07:16.578Z,9.80
2023-04-15T23:09:43.597Z,9.80
2023-04-15T23:12:10.945Z,9.70
2023-04-15T23:14:38.014Z,9.70
2023-04-15T23:17:05.091Z,9.70
2023-04-15T23:19:32.113Z,9.70
2023-04-15T23:21:59.225Z,9.60
2023-04-15T23:24:26.313Z,9.60
2023-04-15T23:26:53.363Z,9.50
2023-04-15T23:29:20.395Z,9.50
2023-04-15T23:31:47.514Z,9.50
2023-04-15T23:34:14.599Z,9.40
2023-04-15T23:36:41.654Z,9.40
2023-04-15T23:39:09.050Z,9.30
2023-04-15T23:41:36.709Z,9.30
2023-04-15T23:44:03.843Z,9.30
2023-04-15T23:46:31.123Z,9.20
2023-04-15T23:48:58.235Z,9.30
2023-04-15T23:51:25.447Z,9.30
2023-04-15T23:53:52.497Z,9.30
2023-04-15T23:56:19.650Z,9.30
2023-04-15T23:58:46.725Z,9.30
